Time;durP1;ratioP1;P1;durP2;ratioP2;P2;SDS_P1;SDS_P2;PMS_P1;PMS_P2;Temp;Humidity;BMP_temperature;BMP_pressure;BME280_temperature;BME280_humidity;BME280_pressure;Samples;Min_cycle;Max_cycle;Signal;HPM_P1;HPM_P2
2021/07/11 00:00:26;;;;;;;;;17.75;15.50;;;;;;;;4962394;28;50772;-82
2021/07/11 00:02:51;;;;;;;;;14.50;12.50;;;;;;;;4977213;28;45673;-82
2021/07/11 00:05:18;;;;;;;;;17.50;12.75;;;;;;;;4974699;28;45582;-82
2021/07/11 00:07:43;;;;;;;;;14.25;13.00;;;;;;;;4979080;28;45606;-80
2021/07/11 00:10:09;;;;;;;;;13.50;11.25;;;;;;;;4977915;28;45577;-82
2021/07/11 00:12:35;;;;;;;;;15.75;13.75;;;;;;;;4974867;28;45735;-80
2021/07/11 00:15:01;;;;;;;;;13.00;12.25;;;;;;;;4973728;28;45503;-81
2021/07/11 00:17:26;;;;;;;;;15.75;14.75;;;;;;;;4967475;28;47028;-80
2021/07/11 00:19:52;;;;;;;;;12.25;11.50;;;;;;;;4972387;28;45492;-82
2021/07/11 00:22:17;;;;;;;;;14.25;13.25;;;;;;;;4980538;28;45614;-82
2021/07/11 00:24:44;;;;;;;;;14.00;14.00;;;;;;;;4971568;28;45491;-81
2021/07/11 00:27:09;;;;;;;;;18.25;13.25;;;;;;;;4980702;28;47857;-81
2021/07/11 00:29:35;;;;;;;;;18.25;15.75;;;;;;;;4975412;28;45638;-82
2021/07/11 00:32:00;;;;;;;;;16.67;12.00;;;;;;;;4975068;28;45559;-81
2021/07/11 00:34:26;;;;;;;;;12.00;11.00;;;;;;;;4973876;28;45633;-81
2021/07/11 00:36:51;;;;;;;;;10.75;9.50;;;;;;;;4959998;28;48748;-82
2021/07/11 00:39:16;;;;;;;;;10.67;9.67;;;;;;;;4979966;28;45651;-81
2021/07/11 00:41:42;;;;;;;;;11.00;8.75;;;;;;;;4962311;28;45525;-81
2021/07/11 00:44:07;;;;;;;;;10.50;10.00;;;;;;;;4970584;28;45480;-81
2021/07/11 00:46:33;;;;;;;;;7.75;7.75;;;;;;;;4983453;28;45767;-81
2021/07/11 00:48:59;;;;;;;;;9.50;7.25;;;;;;;;4950623;28;45576;-81
2021/07/11 00:51:24;;;;;;;;;5.75;5.75;;;;;;;;4971810;28;45568;-81
2021/07/11 00:53:50;;;;;;;;;6.00;6.00;;;;;;;;4982148;28;46647;-81
2021/07/11 00:56:15;;;;;;;;;5.25;3.75;;;;;;;;4968665;28;50621;-81
2021/07/11 00:58:41;;;;;;;;;4.25;4.25;;;;;;;;4976028;28;45661;-81
2021/07/11 01:01:06;;;;;;;;;4.00;4.00;;;;;;;;4977906;28;45567;-81
2021/07/11 01:03:34;;;;;;;;;3.50;3.50;;;;;;;;4982839;28;45628;-81
2021/07/11 01:06:01;;;;;;;;;3.00;3.00;;;;;;;;4978395;28;48123;-83
2021/07/11 01:08:36;;;;;;;;;3.00;3.00;;;;;;;;4977387;28;45577;-81
2021/07/11 01:11:03;;;;;;;;;2.00;2.00;;;;;;;;4973771;28;45475;-81
2021/07/11 01:13:29;;;;;;;;;1.75;1.75;;;;;;;;4985556;28;46751;-82
2021/07/11 01:15:56;;;;;;;;;4.00;3.00;;;;;;;;4974799;28;48269;-81
2021/07/11 01:18:22;;;;;;;;;2.00;2.00;;;;;;;;4976330;28;46236;-81
2021/07/11 01:20:49;;;;;;;;;1.00;1.00;;;;;;;;4980274;28;45638;-81
2021/07/11 01:23:33;;;;;;;;;3.00;2.50;;;;;;;;4986144;28;45742;-81
2021/07/11 01:26:01;;;;;;;;;2.00;2.00;;;;;;;;4974958;28;45976;-81
2021/07/11 01:28:26;;;;;;;;;2.75;2.75;;;;;;;;4972984;28;45575;-81
2021/07/11 01:30:53;;;;;;;;;2.50;2.50;;;;;;;;4978093;28;47902;-81
2021/07/11 01:33:20;;;;;;;;;2.00;2.00;;;;;;;;4984619;28;45516;-82
2021/07/11 01:35:46;;;;;;;;;4.00;2.00;;;;;;;;4956514;28;46782;-82
2021/07/11 01:38:11;;;;;;;;;2.00;2.00;;;;;;;;4960717;28;45928;-82
2021/07/11 01:40:37;;;;;;;;;2.00;1.00;;;;;;;;4982786;28;45425;-81
2021/07/11 01:43:02;;;;;;;;;2.00;2.00;;;;;;;;4953814;28;45753;-82
2021/07/11 01:45:29;;;;;;;;;2.00;2.00;;;;;;;;4974920;28;46228;-80
2021/07/11 01:47:54;;;;;;;;;2.50;2.50;;;;;;;;4970649;28;45617;-81
2021/07/11 01:50:20;;;;;;;;;1.00;1.00;;;;;;;;4967877;28;45635;-82
2021/07/11 01:52:46;;;;;;;;;2.00;1.00;;;;;;;;4973540;28;45831;-81
2021/07/11 01:55:11;;;;;;;;;1.50;1.50;;;;;;;;4972427;28;45558;-82
2021/07/11 01:57:37;;;;;;;;;1.75;1.75;;;;;;;;4970218;28;45616;-81
2021/07/11 02:00:04;;;;;;;;;1.25;1.25;;;;;;;;4975217;28;45526;-81
2021/07/11 02:02:29;;;;;;;;;1.00;1.00;;;;;;;;4967678;28;45716;-81
2021/07/11 02:04:55;;;;;;;;;2.25;1.25;;;;;;;;4972050;28;46179;-81
2021/07/11 02:07:20;;;;;;;;;3.00;2.00;;;;;;;;4970119;28;45887;-81
2021/07/11 02:09:45;;;;;;;;;3.75;2.25;;;;;;;;4955261;28;46268;-82
2021/07/11 02:12:11;;;;;;;;;1.67;1.67;;;;;;;;4951435;28;45545;-81
2021/07/11 02:14:37;;;;;;;;;2.00;2.00;;;;;;;;4969048;28;46552;-81
2021/07/11 02:17:10;;;;;;;;;1.00;1.00;;;;;;;;4971083;28;45735;-81
2021/07/11 02:19:37;;;;;;;;;2.00;2.00;;;;;;;;4955639;28;45763;-81
2021/07/11 02:22:03;;;;;;;;;1.50;1.25;;;;;;;;4969161;28;45507;-82
2021/07/11 02:24:29;;;;;;;;;1.00;1.00;;;;;;;;4967500;28;45412;-80
2021/07/11 02:26:54;;;;;;;;;2.00;2.00;;;;;;;;4958811;28;54131;-81
2021/07/11 02:29:20;;;;;;;;;2.00;1.00;;;;;;;;4973033;28;46101;-81
2021/07/11 02:31:46;;;;;;;;;1.00;1.00;;;;;;;;4976740;28;45759;-81
2021/07/11 02:34:13;;;;;;;;;1.00;1.00;;;;;;;;4969283;28;46509;-82
2021/07/11 02:36:47;;;;;;;;;3.00;1.75;;;;;;;;4967960;28;45560;-81
2021/07/11 02:39:14;;;;;;;;;2.00;2.00;;;;;;;;4970099;28;45727;-81
2021/07/11 02:41:46;;;;;;;;;2.00;2.00;;;;;;;;4970051;28;46273;-82
2021/07/11 02:44:13;;;;;;;;;2.00;2.00;;;;;;;;4971061;28;45619;-82
2021/07/11 02:46:43;;;;;;;;;4.00;2.00;;;;;;;;4973181;28;45587;-81
2021/07/11 02:49:11;;;;;;;;;2.75;2.75;;;;;;;;4977429;28;45532;-82
2021/07/11 02:51:39;;;;;;;;;4.00;4.00;;;;;;;;4955607;28;45542;-81
2021/07/11 02:54:06;;;;;;;;;4.00;3.00;;;;;;;;4970527;28;45539;-82
2021/07/11 02:56:34;;;;;;;;;4.00;3.50;;;;;;;;4968016;28;48815;-81
2021/07/11 02:59:00;;;;;;;;;4.75;3.00;;;;;;;;4974408;28;46612;-82
2021/07/11 03:01:26;;;;;;;;;1.25;1.25;;;;;;;;4975829;28;44989;-82
2021/07/11 03:03:56;;;;;;;;;4.00;4.00;;;;;;;;4967520;28;46145;-81
2021/07/11 03:06:21;;;;;;;;;2.25;2.25;;;;;;;;4971845;28;46068;-82
2021/07/11 03:08:46;;;;;;;;;3.50;3.50;;;;;;;;4971078;28;46056;-82
2021/07/11 03:11:12;;;;;;;;;3.00;3.00;;;;;;;;4968284;28;45639;-82
2021/07/11 03:13:38;;;;;;;;;3.25;3.25;;;;;;;;4977274;28;46091;-81
2021/07/11 03:16:04;;;;;;;;;3.00;3.00;;;;;;;;4974951;28;45835;-81
2021/07/11 03:18:30;;;;;;;;;4.00;3.00;;;;;;;;4963445;28;45620;-82
2021/07/11 03:20:56;;;;;;;;;4.00;3.00;;;;;;;;4959106;28;45534;-82
2021/07/11 03:23:22;;;;;;;;;3.50;2.25;;;;;;;;4965843;28;49905;-81
2021/07/11 03:25:49;;;;;;;;;3.00;3.00;;;;;;;;4973635;28;45483;-81
2021/07/11 03:28:15;;;;;;;;;3.50;3.00;;;;;;;;4977246;28;45420;-81
2021/07/11 03:30:43;;;;;;;;;2.25;2.00;;;;;;;;4953276;28;45669;-81
2021/07/11 03:33:10;;;;;;;;;3.00;3.00;;;;;;;;4972275;28;46988;-81
2021/07/11 03:35:43;;;;;;;;;3.50;3.00;;;;;;;;4967702;28;47756;-82
2021/07/11 03:38:10;;;;;;;;;4.00;2.00;;;;;;;;4971837;28;45704;-81
2021/07/11 03:40:38;;;;;;;;;5.00;3.00;;;;;;;;4977298;28;47511;-81
2021/07/11 03:43:06;;;;;;;;;5.00;4.00;;;;;;;;4973966;28;45661;-81
2021/07/11 03:45:32;;;;;;;;;4.00;3.50;;;;;;;;4975835;28;45545;-81
2021/07/11 03:48:02;;;;;;;;;3.00;3.00;;;;;;;;4977364;28;45522;-82
2021/07/11 03:50:28;;;;;;;;;2.00;2.00;;;;;;;;4971139;28;46054;-82
2021/07/11 03:52:56;;;;;;;;;4.00;2.25;;;;;;;;4976314;28;47282;-81
2021/07/11 03:55:21;;;;;;;;;2.00;2.00;;;;;;;;4973368;28;45714;-81
2021/07/11 03:57:47;;;;;;;;;3.00;3.00;;;;;;;;4976040;28;46136;-81
2021/07/11 04:00:16;;;;;;;;;3.00;2.75;;;;;;;;4985509;28;45653;-84
2021/07/11 04:02:45;;;;;;;;;2.25;2.25;;;;;;;;4969701;28;46322;-81
2021/07/11 04:05:11;;;;;;;;;4.00;3.00;;;;;;;;4978606;28;45635;-81
2021/07/11 04:07:37;;;;;;;;;3.50;3.50;;;;;;;;4981365;28;45362;-82
2021/07/11 04:10:04;;;;;;;;;3.00;3.00;;;;;;;;4974139;28;45728;-83
2021/07/11 04:12:29;;;;;;;;;3.00;3.00;;;;;;;;4975703;28;46589;-81
2021/07/11 04:14:54;;;;;;;;;4.50;3.75;;;;;;;;4954764;28;49469;-82
2021/07/11 04:17:21;;;;;;;;;5.75;4.00;;;;;;;;4970944;28;46614;-81
2021/07/11 04:19:47;;;;;;;;;5.50;4.50;;;;;;;;4980978;28;45463;-81
2021/07/11 04:22:15;;;;;;;;;4.75;4.75;;;;;;;;4973669;28;45433;-81
2021/07/11 04:24:43;;;;;;;;;4.50;4.50;;;;;;;;4965611;28;45929;-80
2021/07/11 04:27:10;;;;;;;;;4.00;4.00;;;;;;;;4972847;28;45595;-80
2021/07/11 04:29:36;;;;;;;;;3.00;3.00;;;;;;;;4965566;28;47157;-80
2021/07/11 04:32:02;;;;;;;;;4.25;4.00;;;;;;;;4977817;28;45767;-81
2021/07/11 04:34:29;;;;;;;;;5.25;5.00;;;;;;;;4974034;28;45841;-80
2021/07/11 04:36:54;;;;;;;;;6.00;4.75;;;;;;;;4956345;28;45786;-80
2021/07/11 04:39:20;;;;;;;;;3.75;3.00;;;;;;;;4976835;28;45718;-80
2021/07/11 04:41:45;;;;;;;;;4.00;4.00;;;;;;;;4973751;28;45627;-80
2021/07/11 04:44:10;;;;;;;;;3.00;3.00;;;;;;;;4961517;28;45503;-80
2021/07/11 04:46:36;;;;;;;;;4.00;4.00;;;;;;;;4983981;28;46014;-80
2021/07/11 04:49:01;;;;;;;;;4.00;4.00;;;;;;;;4980150;28;45462;-80
2021/07/11 04:51:26;;;;;;;;;4.75;4.75;;;;;;;;4985668;28;46289;-80
2021/07/11 04:53:51;;;;;;;;;4.75;4.75;;;;;;;;4952943;28;45592;-79
2021/07/11 04:56:17;;;;;;;;;3.00;3.00;;;;;;;;4972469;28;45498;-81
2021/07/11 04:58:42;;;;;;;;;3.00;3.00;;;;;;;;4980082;28;45573;-80
2021/07/11 05:01:07;;;;;;;;;3.33;3.33;;;;;;;;4975036;28;45567;-80
2021/07/11 05:03:33;;;;;;;;;4.00;4.00;;;;;;;;4977669;28;45625;-80
2021/07/11 05:05:58;;;;;;;;;7.50;4.75;;;;;;;;4973001;28;45606;-80
2021/07/11 05:08:23;;;;;;;;;4.75;4.00;;;;;;;;4977246;28;45484;-80
2021/07/11 05:10:49;;;;;;;;;4.50;4.50;;;;;;;;4980766;28;45879;-80
2021/07/11 05:13:14;;;;;;;;;4.75;3.50;;;;;;;;4971781;28;53852;-81
2021/07/11 05:15:39;;;;;;;;;5.25;5.25;;;;;;;;4973446;28;45572;-80
2021/07/11 05:18:04;;;;;;;;;5.00;5.00;;;;;;;;4971927;28;45566;-80
2021/07/11 05:20:30;;;;;;;;;6.67;5.33;;;;;;;;4973782;28;45530;-81
2021/07/11 05:22:55;;;;;;;;;4.00;4.00;;;;;;;;4978209;28;45484;-80
2021/07/11 05:25:20;;;;;;;;;5.75;4.25;;;;;;;;4972898;28;45811;-80
2021/07/11 05:27:46;;;;;;;;;5.00;5.00;;;;;;;;4979810;28;45511;-80
2021/07/11 05:30:12;;;;;;;;;9.00;6.00;;;;;;;;4980009;28;45554;-80
2021/07/11 05:32:37;;;;;;;;;4.00;4.00;;;;;;;;4968733;28;45358;-80
2021/07/11 05:35:03;;;;;;;;;5.50;4.25;;;;;;;;4979248;28;46625;-80
2021/07/11 05:37:28;;;;;;;;;8.75;5.00;;;;;;;;4969711;28;46484;-79
2021/07/11 05:39:53;;;;;;;;;3.75;3.75;;;;;;;;4970004;28;45875;-80
2021/07/11 05:42:19;;;;;;;;;6.75;6.00;;;;;;;;4974976;28;45590;-80
2021/07/11 05:44:44;;;;;;;;;4.75;4.50;;;;;;;;4977782;28;49654;-80
2021/07/11 05:47:11;;;;;;;;;4.25;4.25;;;;;;;;4977203;28;47005;-80
2021/07/11 05:49:36;;;;;;;;;5.00;4.00;;;;;;;;4961333;28;47048;-80
2021/07/11 05:52:03;;;;;;;;;4.00;4.00;;;;;;;;4956304;28;46550;-80
2021/07/11 05:54:28;;;;;;;;;4.50;4.00;;;;;;;;4984102;28;45613;-80
2021/07/11 05:56:53;;;;;;;;;6.00;5.50;;;;;;;;4973507;28;45633;-80
2021/07/11 05:59:18;;;;;;;;;3.50;3.50;;;;;;;;4955351;28;45624;-80
2021/07/11 06:01:44;;;;;;;;;3.00;3.00;;;;;;;;4980766;28;45568;-80
2021/07/11 06:04:09;;;;;;;;;5.67;4.00;;;;;;;;4980539;28;45831;-80
2021/07/11 06:06:34;;;;;;;;;7.00;5.00;;;;;;;;4970623;28;45698;-81
2021/07/11 06:08:59;;;;;;;;;7.00;5.33;;;;;;;;4970331;28;48941;-79
2021/07/11 06:11:25;;;;;;;;;3.00;3.00;;;;;;;;4979423;28;45713;-80
2021/07/11 06:13:50;;;;;;;;;5.00;5.00;;;;;;;;4968421;28;45821;-78
2021/07/11 06:16:16;;;;;;;;;4.25;4.00;;;;;;;;4974632;28;47270;-78
2021/07/11 06:18:41;;;;;;;;;7.00;4.75;;;;;;;;4981003;28;46263;-79
2021/07/11 06:21:06;;;;;;;;;6.25;6.25;;;;;;;;4976508;28;45458;-79
2021/07/11 06:23:31;;;;;;;;;5.00;5.00;;;;;;;;4977488;28;45566;-78
2021/07/11 06:25:57;;;;;;;;;6.00;6.00;;;;;;;;4975774;28;45895;-78
2021/07/11 06:28:22;;;;;;;;;7.00;4.75;;;;;;;;4974630;28;47025;-79
2021/07/11 06:30:47;;;;;;;;;6.75;5.75;;;;;;;;4979058;28;46661;-79
2021/07/11 06:33:13;;;;;;;;;6.25;5.00;;;;;;;;4967524;28;45639;-79
2021/07/11 06:35:38;;;;;;;;;5.75;5.75;;;;;;;;4991601;28;45404;-78
2021/07/11 06:40:39;;;;;;;;;4.25;3.50;;;;;;;;5320299;22;44869;-78
2021/07/11 06:43:04;;;;;;;;;4.50;4.50;;;;;;;;5039829;28;45890;-79
2021/07/11 06:45:29;;;;;;;;;5.75;4.00;;;;;;;;5038415;28;45629;-79
2021/07/11 06:47:54;;;;;;;;;4.00;4.00;;;;;;;;5038410;28;45807;-80
2021/07/11 06:50:20;;;;;;;;;4.75;4.75;;;;;;;;5047131;28;45446;-81
2021/07/11 06:52:48;;;;;;;;;4.00;4.00;;;;;;;;5032547;28;45575;-81
2021/07/11 06:57:42;;;;;;;;;5.00;5.00;;;;;;;;5054276;22;45914;-80
2021/07/11 07:00:09;;;;;;;;;3.50;3.50;;;;;;;;4954931;28;46732;-81
2021/07/11 07:02:35;;;;;;;;;3.75;3.75;;;;;;;;4977020;28;47085;-81
2021/07/11 07:05:00;;;;;;;;;5.00;3.00;;;;;;;;4978337;28;45361;-82
2021/07/11 07:07:25;;;;;;;;;3.75;3.25;;;;;;;;4979696;28;45588;-80
2021/07/11 07:09:51;;;;;;;;;3.25;3.25;;;;;;;;4974939;28;45546;-80
2021/07/11 07:12:16;;;;;;;;;2.75;2.75;;;;;;;;4956893;28;45479;-79
2021/07/11 07:14:41;;;;;;;;;2.00;2.00;;;;;;;;4972576;28;45558;-79
2021/07/11 07:17:06;;;;;;;;;2.33;2.33;;;;;;;;4988428;28;46107;-80
2021/07/11 07:19:32;;;;;;;;;2.00;2.00;;;;;;;;4974571;28;45515;-81
2021/07/11 07:21:57;;;;;;;;;2.50;2.50;;;;;;;;4967642;28;45832;-81
2021/07/11 07:24:22;;;;;;;;;3.75;1.75;;;;;;;;4984256;28;47268;-81
2021/07/11 07:26:48;;;;;;;;;3.25;3.25;;;;;;;;4972528;28;48045;-81
2021/07/11 07:29:13;;;;;;;;;3.50;2.75;;;;;;;;4982206;28;45355;-81
2021/07/11 07:31:38;;;;;;;;;2.50;2.50;;;;;;;;4972548;28;48147;-81
2021/07/11 07:34:04;;;;;;;;;3.75;3.00;;;;;;;;4969282;28;45640;-81
2021/07/11 07:36:29;;;;;;;;;3.75;3.00;;;;;;;;4962987;28;47543;-81
2021/07/11 07:38:55;;;;;;;;;3.00;3.00;;;;;;;;4975364;28;45750;-81
2021/07/11 07:41:20;;;;;;;;;3.50;3.50;;;;;;;;4975511;28;45768;-81
2021/07/11 07:43:45;;;;;;;;;4.50;3.00;;;;;;;;4979341;28;46948;-81
2021/07/11 07:46:11;;;;;;;;;6.75;3.50;;;;;;;;4974956;28;47782;-81
2021/07/11 07:48:36;;;;;;;;;5.25;3.00;;;;;;;;4975626;28;45572;-82
2021/07/11 07:51:01;;;;;;;;;3.50;3.50;;;;;;;;4973486;28;46417;-81
2021/07/11 07:53:27;;;;;;;;;3.50;3.50;;;;;;;;4978990;28;45598;-82
2021/07/11 07:55:52;;;;;;;;;5.00;3.75;;;;;;;;4955812;28;45950;-81
2021/07/11 07:58:17;;;;;;;;;3.25;3.00;;;;;;;;4982230;28;45516;-83
2021/07/11 08:00:43;;;;;;;;;4.33;4.33;;;;;;;;4998095;28;45690;-82
2021/07/11 08:03:08;;;;;;;;;6.75;5.00;;;;;;;;4979989;28;45538;-82
2021/07/11 08:05:33;;;;;;;;;4.25;4.25;;;;;;;;4980966;28;46881;-82
2021/07/11 08:07:59;;;;;;;;;4.50;3.50;;;;;;;;4990525;28;46792;-82
2021/07/11 08:10:27;;;;;;;;;4.25;4.25;;;;;;;;4994613;28;47710;-83
2021/07/11 08:12:53;;;;;;;;;3.50;3.50;;;;;;;;4979641;28;45663;-79
2021/07/11 08:15:19;;;;;;;;;4.25;4.25;;;;;;;;4985881;28;46452;-81
2021/07/11 08:17:46;;;;;;;;;4.00;4.00;;;;;;;;4989212;28;45762;-82
2021/07/11 08:20:12;;;;;;;;;4.00;3.00;;;;;;;;4980238;28;45578;-82
2021/07/11 08:22:37;;;;;;;;;3.50;3.50;;;;;;;;4981888;28;45691;-81
2021/07/11 08:25:03;;;;;;;;;8.00;5.25;;;;;;;;4999113;28;45896;-81
2021/07/11 08:27:28;;;;;;;;;7.00;6.00;;;;;;;;4980875;28;45595;-82
2021/07/11 08:29:54;;;;;;;;;7.50;7.50;;;;;;;;4994178;28;45506;-81
2021/07/11 08:32:19;;;;;;;;;7.25;7.25;;;;;;;;4998895;28;45831;-81
2021/07/11 08:34:45;;;;;;;;;8.00;6.75;;;;;;;;4981975;28;47335;-83
2021/07/11 08:37:10;;;;;;;;;11.50;9.00;;;;;;;;4991067;28;45914;-82
2021/07/11 08:39:35;;;;;;;;;8.33;7.67;;;;;;;;4994429;28;45562;-82
2021/07/11 08:42:00;;;;;;;;;8.50;8.50;;;;;;;;4990577;28;45572;-83
2021/07/11 08:44:26;;;;;;;;;12.50;10.25;;;;;;;;4999284;28;45755;-83
2021/07/11 08:46:51;;;;;;;;;12.50;10.00;;;;;;;;4987069;28;45470;-82
2021/07/11 08:49:17;;;;;;;;;8.50;8.25;;;;;;;;4995774;28;45497;-82
2021/07/11 08:51:43;;;;;;;;;7.25;7.25;;;;;;;;4987047;28;49385;-81
2021/07/11 08:54:08;;;;;;;;;7.75;7.75;;;;;;;;4995340;28;46321;-83
2021/07/11 08:56:33;;;;;;;;;8.00;8.00;;;;;;;;4997831;28;53218;-81
2021/07/11 08:58:59;;;;;;;;;8.00;8.00;;;;;;;;4978511;28;45631;-81
2021/07/11 09:01:27;;;;;;;;;5.50;5.50;;;;;;;;5000326;28;46898;-80
2021/07/11 09:03:59;;;;;;;;;8.00;6.00;;;;;;;;4993568;28;45822;-83
2021/07/11 09:06:24;;;;;;;;;8.25;6.75;;;;;;;;4993305;28;45602;-81
2021/07/11 09:08:55;;;;;;;;;7.00;7.00;;;;;;;;4997822;28;45606;-82
2021/07/11 09:11:20;;;;;;;;;8.00;7.00;;;;;;;;4981301;28;45694;-81
2021/07/11 09:13:49;;;;;;;;;7.50;6.50;;;;;;;;4989648;28;49856;-82
2021/07/11 09:16:14;;;;;;;;;6.50;6.25;;;;;;;;4991889;28;45624;-81
2021/07/11 09:18:39;;;;;;;;;7.67;6.67;;;;;;;;4996246;28;46083;-83
2021/07/11 09:21:06;;;;;;;;;6.25;6.25;;;;;;;;4992782;28;45659;-81
2021/07/11 09:26:14;;;;;;;;;4.75;4.75;;;;;;;;5873871;22;45962;-80
2021/07/11 09:28:50;;;;;;;;;6.00;6.00;;;;;;;;5001963;28;45623;-81
2021/07/11 09:31:17;;;;;;;;;4.50;4.50;;;;;;;;5009372;28;45459;-81
2021/07/11 09:33:43;;;;;;;;;5.25;3.75;;;;;;;;5017291;28;47278;-83
2021/07/11 09:36:16;;;;;;;;;5.00;4.00;;;;;;;;5015107;28;45616;-83
2021/07/11 09:38:45;;;;;;;;;6.00;6.00;;;;;;;;5015251;28;45673;-85
2021/07/11 09:41:15;;;;;;;;;6.25;4.50;;;;;;;;5015355;28;45461;-83
2021/07/11 09:43:41;;;;;;;;;4.00;4.00;;;;;;;;5013329;28;45907;-84
2021/07/11 09:46:14;;;;;;;;;4.50;4.50;;;;;;;;4997172;28;46231;-84
2021/07/11 09:48:40;;;;;;;;;5.25;4.50;;;;;;;;5011632;28;45608;-86
2021/07/11 09:51:22;;;;;;;;;4.25;4.25;;;;;;;;5007812;28;46375;-84
2021/07/11 09:53:49;;;;;;;;;6.00;4.75;;;;;;;;5025212;22;50515;-96
2021/07/11 09:56:30;;;;;;;;;5.00;5.00;;;;;;;;5042825;22;45625;-82
2021/07/11 09:59:01;;;;;;;;;4.25;3.75;;;;;;;;5009965;28;45542;-83
2021/07/11 10:01:30;;;;;;;;;4.75;4.75;;;;;;;;5014292;28;45641;-86
2021/07/11 10:03:59;;;;;;;;;3.00;3.00;;;;;;;;5010360;28;48228;-85
2021/07/11 10:06:28;;;;;;;;;5.25;4.25;;;;;;;;4995193;28;50913;-86
2021/07/11 10:08:54;;;;;;;;;5.75;4.00;;;;;;;;5015605;28;45496;-87
2021/07/11 10:11:19;;;;;;;;;3.25;3.00;;;;;;;;5011493;28;45463;-84
2021/07/11 10:13:45;;;;;;;;;4.50;3.50;;;;;;;;5011601;28;45855;-83
2021/07/11 10:16:10;;;;;;;;;3.75;3.75;;;;;;;;5011323;28;45602;-84
2021/07/11 10:18:37;;;;;;;;;4.50;4.00;;;;;;;;5001957;28;46261;-83
2021/07/11 10:21:02;;;;;;;;;6.50;5.00;;;;;;;;5012707;28;46902;-84
2021/07/11 10:23:33;;;;;;;;;5.00;4.00;;;;;;;;5023831;28;45626;-84
2021/07/11 10:26:00;;;;;;;;;5.50;5.00;;;;;;;;5056864;22;45829;-83
2021/07/11 10:28:29;;;;;;;;;4.50;3.00;;;;;;;;5019136;28;45538;-81
2021/07/11 10:30:54;;;;;;;;;3.00;3.00;;;;;;;;5020694;28;45538;-82
2021/07/11 10:33:20;;;;;;;;;6.75;3.75;;;;;;;;5008751;28;45634;-87
2021/07/11 10:35:49;;;;;;;;;3.00;3.00;;;;;;;;5015199;28;45811;-88
2021/07/11 10:38:26;;;;;;;;;4.00;4.00;;;;;;;;5010266;28;45582;-88
2021/07/11 10:40:52;;;;;;;;;3.00;3.00;;;;;;;;5007619;28;45888;-88
2021/07/11 10:43:17;;;;;;;;;4.25;3.00;;;;;;;;5016130;28;45860;-90
2021/07/11 10:45:46;;;;;;;;;3.25;3.25;;;;;;;;5014122;28;47209;-88
2021/07/11 10:48:14;;;;;;;;;4.50;4.00;;;;;;;;5006199;28;45487;-88
2021/07/11 10:50:43;;;;;;;;;3.50;3.50;;;;;;;;5012883;28;45700;-85
2021/07/11 10:53:16;;;;;;;;;0.00;0.00;;;;;;;;5009161;28;45592;-85
2021/07/11 10:58:17;;;;;;;;;4.50;4.50;;;;;;;;5314739;22;45705;-84
2021/07/11 11:00:43;;;;;;;;;6.25;5.00;;;;;;;;5020761;28;45759;-85
2021/07/11 11:03:20;;;;;;;;;5.25;4.75;;;;;;;;5019219;28;47954;-86
2021/07/11 11:08:17;;;;;;;;;3.00;3.00;;;;;;;;5069538;27;45550;-94
2021/07/11 11:10:56;;;;;;;;;;;;;;;;;;;;;
2021/07/11 11:13:25;;;;;;;;;5.00;4.00;;;;;;;;5091865;22;45673;-81
2021/07/11 11:15:52;;;;;;;;;3.25;3.25;;;;;;;;5018184;28;45608;-81
2021/07/11 11:18:38;;;;;;;;;3.50;3.50;;;;;;;;5012515;28;45512;-81
2021/07/11 11:21:14;;;;;;;;;5.00;3.00;;;;;;;;5021569;28;45554;-81
2021/07/11 11:23:44;;;;;;;;;3.00;3.00;;;;;;;;5017961;28;45564;-80
2021/07/11 11:26:10;;;;;;;;;3.75;3.25;;;;;;;;5019387;28;45619;-86
2021/07/11 11:28:37;;;;;;;;;3.00;3.00;;;;;;;;5023826;28;45431;-84
2021/07/11 11:31:15;;;;;;;;;5.00;5.00;;;;;;;;5016491;28;45561;-83
2021/07/11 11:33:47;;;;;;;;;3.00;3.00;;;;;;;;4995221;28;47480;-83
2021/07/11 11:36:16;;;;;;;;;2.75;2.75;;;;;;;;5012195;28;45565;-84
2021/07/11 11:42:07;;;;;;;;;3.50;3.50;;;;;;;;5058451;28;45459;-82
2021/07/11 11:44:32;;;;;;;;;4.00;3.00;;;;;;;;5008794;28;46433;-80
2021/07/11 11:46:58;;;;;;;;;3.00;3.00;;;;;;;;5006660;28;46152;-82
2021/07/11 11:49:28;;;;;;;;;5.00;3.00;;;;;;;;5023158;28;45953;-82
2021/07/11 11:51:58;;;;;;;;;3.00;3.00;;;;;;;;5004197;28;46464;-81
2021/07/11 11:54:24;;;;;;;;;4.00;4.00;;;;;;;;5005296;28;47220;-84
2021/07/11 11:56:49;;;;;;;;;4.00;3.00;;;;;;;;5012726;28;45607;-81
2021/07/11 11:59:15;;;;;;;;;3.50;3.50;;;;;;;;5012453;28;45529;-83
2021/07/11 12:01:40;;;;;;;;;3.75;3.00;;;;;;;;5006476;28;45594;-81
2021/07/11 12:04:10;;;;;;;;;4.00;4.00;;;;;;;;5020364;28;45578;-78
2021/07/11 12:06:36;;;;;;;;;5.00;4.00;;;;;;;;5017200;28;45618;-82
2021/07/11 12:09:01;;;;;;;;;3.00;3.00;;;;;;;;5009987;28;45757;-80
2021/07/11 12:11:26;;;;;;;;;3.50;3.00;;;;;;;;5013155;28;45381;-82
2021/07/11 12:13:52;;;;;;;;;3.75;3.75;;;;;;;;5021693;28;45999;-82
2021/07/11 12:16:18;;;;;;;;;4.00;4.00;;;;;;;;5022785;28;45878;-82
2021/07/11 12:18:43;;;;;;;;;3.25;3.25;;;;;;;;5022802;28;45859;-83
2021/07/11 12:21:09;;;;;;;;;4.25;3.00;;;;;;;;5019973;28;45501;-85
2021/07/11 12:23:34;;;;;;;;;4.00;4.00;;;;;;;;5017036;28;49991;-84
2021/07/11 12:26:01;;;;;;;;;2.00;2.00;;;;;;;;4998620;28;45506;-82
2021/07/11 12:28:32;;;;;;;;;5.25;4.75;;;;;;;;5016224;28;45721;-84
2021/07/11 12:30:58;;;;;;;;;3.50;3.25;;;;;;;;5016299;28;52209;-83
2021/07/11 12:33:25;;;;;;;;;4.00;4.00;;;;;;;;5017117;28;47744;-85
2021/07/11 12:35:52;;;;;;;;;3.25;3.25;;;;;;;;5023421;28;45567;-84
2021/07/11 12:38:27;;;;;;;;;4.00;4.00;;;;;;;;5010202;28;45369;-82
2021/07/11 12:40:55;;;;;;;;;4.00;4.00;;;;;;;;5009259;28;45835;-81
2021/07/11 12:43:22;;;;;;;;;5.25;5.25;;;;;;;;5022301;28;46273;-80
2021/07/11 12:46:01;;;;;;;;;4.50;3.75;;;;;;;;5005623;28;47245;-80
2021/07/11 12:48:40;;;;;;;;;5.00;4.50;;;;;;;;5019055;28;46228;-81
2021/07/11 12:51:24;;;;;;;;;3.50;3.50;;;;;;;;5017889;28;45434;-82
2021/07/11 12:53:53;;;;;;;;;4.00;4.00;;;;;;;;5022176;28;47320;-79
2021/07/11 12:56:20;;;;;;;;;3.00;3.00;;;;;;;;5014934;28;47437;-80
2021/07/11 12:58:46;;;;;;;;;4.00;4.00;;;;;;;;5010357;28;45757;-80
2021/07/11 13:01:12;;;;;;;;;4.25;4.25;;;;;;;;5017295;28;45469;-81
2021/07/11 13:03:38;;;;;;;;;4.00;4.00;;;;;;;;5010455;28;45723;-80
2021/07/11 13:06:04;;;;;;;;;4.25;4.00;;;;;;;;5019485;28;47195;-81
2021/07/11 13:08:29;;;;;;;;;7.00;4.75;;;;;;;;5003123;28;45529;-80
2021/07/11 13:10:54;;;;;;;;;3.00;3.00;;;;;;;;4991193;28;55570;-81
2021/07/11 13:13:20;;;;;;;;;5.00;5.00;;;;;;;;5017676;28;45648;-81
2021/07/11 13:15:45;;;;;;;;;4.25;3.75;;;;;;;;5023860;28;45453;-81
2021/07/11 13:18:11;;;;;;;;;6.75;5.00;;;;;;;;5017309;28;45908;-80
2021/07/11 13:20:37;;;;;;;;;4.25;4.00;;;;;;;;5008627;28;45763;-80
2021/07/11 13:23:03;;;;;;;;;4.00;4.00;;;;;;;;5011926;28;46239;-81
2021/07/11 13:25:28;;;;;;;;;4.25;4.25;;;;;;;;5017079;28;46030;-81
2021/07/11 13:27:53;;;;;;;;;4.75;3.50;;;;;;;;5001377;28;48155;-80
2021/07/11 13:30:24;;;;;;;;;4.50;4.50;;;;;;;;5023141;28;45437;-81
2021/07/11 13:32:49;;;;;;;;;3.00;3.00;;;;;;;;5015026;28;46142;-81
2021/07/11 13:35:15;;;;;;;;;4.75;4.75;;;;;;;;5014684;28;45736;-84
2021/07/11 13:37:40;;;;;;;;;3.75;3.75;;;;;;;;5000721;28;48435;-85
2021/07/11 13:40:06;;;;;;;;;5.25;4.50;;;;;;;;5015975;28;45551;-85
2021/07/11 13:42:32;;;;;;;;;5.50;4.50;;;;;;;;5021208;28;45779;-84
2021/07/11 13:44:59;;;;;;;;;3.25;3.25;;;;;;;;5021697;28;45603;-83
2021/07/11 13:47:24;;;;;;;;;5.50;5.00;;;;;;;;5007806;28;45486;-82
2021/07/11 13:49:49;;;;;;;;;6.00;4.00;;;;;;;;5024139;28;45402;-84
2021/07/11 13:52:17;;;;;;;;;3.25;3.25;;;;;;;;5020784;28;46288;-84
2021/07/11 13:54:42;;;;;;;;;5.00;4.25;;;;;;;;5009715;28;45490;-84
2021/07/11 13:57:08;;;;;;;;;3.67;3.67;;;;;;;;5000386;28;45545;-84
2021/07/11 13:59:33;;;;;;;;;6.25;4.00;;;;;;;;5015041;28;45693;-83
2021/07/11 14:01:59;;;;;;;;;5.25;4.00;;;;;;;;5008950;28;46041;-83
2021/07/11 14:04:24;;;;;;;;;4.00;4.00;;;;;;;;5016191;28;45626;-83
2021/07/11 14:06:51;;;;;;;;;4.00;3.25;;;;;;;;5002811;28;51524;-83
2021/07/11 14:09:17;;;;;;;;;4.00;4.00;;;;;;;;5025908;28;45450;-84
2021/07/11 14:11:42;;;;;;;;;4.25;4.25;;;;;;;;5016382;28;46789;-84
2021/07/11 14:14:07;;;;;;;;;2.25;2.25;;;;;;;;5013456;28;45565;-85
2021/07/11 14:19:08;;;;;;;;;5.00;5.00;;;;;;;;5497226;22;49702;-83
2021/07/11 14:21:33;;;;;;;;;4.00;3.00;;;;;;;;5029221;28;45469;-83
2021/07/11 14:23:58;;;;;;;;;4.00;4.00;;;;;;;;5021846;28;50774;-86
2021/07/11 14:26:24;;;;;;;;;3.75;3.75;;;;;;;;5010919;28;45512;-83
2021/07/11 14:28:49;;;;;;;;;2.50;2.50;;;;;;;;5026264;28;46676;-85
2021/07/11 14:31:15;;;;;;;;;5.75;3.00;;;;;;;;5009514;28;47309;-85
2021/07/11 14:33:40;;;;;;;;;2.50;2.50;;;;;;;;5008578;28;46186;-83
2021/07/11 14:36:05;;;;;;;;;3.50;3.50;;;;;;;;5015919;28;45854;-80
2021/07/11 14:38:31;;;;;;;;;2.33;2.33;;;;;;;;5013888;28;45711;-81
2021/07/11 14:40:56;;;;;;;;;2.00;2.00;;;;;;;;5022918;28;46554;-80
2021/07/11 14:43:21;;;;;;;;;3.50;3.00;;;;;;;;5023751;28;45565;-80
2021/07/11 14:45:46;;;;;;;;;1.00;1.00;;;;;;;;5019325;28;45554;-81
2021/07/11 14:48:12;;;;;;;;;3.00;3.00;;;;;;;;5023209;28;49175;-81
2021/07/11 14:50:37;;;;;;;;;4.75;2.00;;;;;;;;5009485;28;46651;-80
2021/07/11 14:53:02;;;;;;;;;4.00;3.00;;;;;;;;5013837;28;45577;-82
2021/07/11 14:55:28;;;;;;;;;2.00;1.00;;;;;;;;5018478;28;46595;-80
2021/07/11 14:57:53;;;;;;;;;4.00;3.00;;;;;;;;5005617;28;45689;-82